CDT,Max TemperatureF,Mean TemperatureF,Min TemperatureF,Max Dew PointF,MeanDew PointF,Min DewpointF,Max Humidity, Mean Humidity, Min Humidity, Max Sea Level PressureIn, Mean Sea Level PressureIn, Min Sea Level PressureIn, Max VisibilityMiles, Mean VisibilityMiles, Min VisibilityMiles, Max Wind SpeedMPH, Mean Wind SpeedMPH, Max Gust SpeedMPH,PrecipitationIn, CloudCover, Events, WindDirDegrees
2012-10-1,75,68,60,54,50,45,77,57,36,29.90,29.86,29.82,10,10,10,13,5,17,0.00,0,,354
2012-10-2,75,62,50,52,46,41,87,57,31,30.00,29.95,29.90,10,10,7,10,5,17,0.00,0,,347
2012-10-3,78,60,42,54,49,43,100,68,32,30.04,29.99,29.95,10,9,1,16,4,22,0.00,0,,173
2012-10-4,78,66,55,61,54,45,88,66,50,30.19,30.14,30.04,10,10,10,14,9,18,0.00,1,,142
2012-10-5,55,48,41,45,42,36,82,76,62,30.30,30.21,30.16,10,10,5,18,11,29,0.01,6,Rain,24
2012-10-6,46,42,37,39,35,32,93,76,61,30.36,30.32,30.28,10,10,7,10,6,16,0.04,3,Rain-Thunderstorm,26
2012-10-7,53,42,30,37,31,28,93,65,38,30.36,30.31,30.24,10,10,10,12,3,,0.00,1,,13
2012-10-8,60,45,30,41,35,28,100,74,39,30.27,30.19,30.07,10,8,0,16,5,21,0.00,1,Fog,185
2012-10-9,62,52,42,54,47,37,100,78,59,30.11,30.01,29.91,10,10,4,22,8,30,0.00,4,,173
2012-10-10,66,52,37,52,39,32,94,57,28,30.32,30.22,30.12,10,10,2,14,7,20,0.00,2,,53
2012-10-11,73,66,59,63,53,41,78,64,48,30.18,30.13,30.06,10,10,10,15,7,22,0.00,7,,158
2012-10-12,68,65,62,68,63,61,100,87,78,30.23,30.16,30.11,10,8,1,23,7,31,1.37,3,Rain-Thunderstorm,143
2012-10-13,73,68,62,68,64,63,100,90,73,30.08,29.92,29.74,10,7,2,18,13,29,0.44,3,Rain-Thunderstorm,171
2012-10-14,77,64,50,63,50,43,100,66,29,30.10,29.96,29.73,10,10,7,15,10,22,0.00,0,,279
2012-10-15,82,63,44,52,47,43,93,61,26,30.09,30.01,29.92,10,10,10,13,4,10,0.00,0,,202
2012-10-16,78,64,51,52,48,45,82,56,30,29.93,29.79,29.63,10,10,10,24,11,32,0.00,0,,178
2012-10-17,77,66,50,63,51,36,88,62,35,29.81,29.62,29.50,10,10,10,18,12,29,0.00,3,,251
2012-10-18,68,55,42,39,30,23,81,42,20,29.93,29.87,29.82,10,9,2,29,10,38,0.00,2,,283
2012-10-19,66,54,41,37,32,27,81,44,30,29.93,29.88,29.84,10,9,4,20,10,25,0.00,0,,297
2012-10-20,80,58,37,54,44,36,93,64,34,29.89,29.83,29.75,10,10,10,14,4,17,0.00,0,,149
2012-10-21,80,72,64,68,62,54,83,71,60,29.86,29.81,29.78,10,10,10,24,13,32,0.00,4,,163
2012-10-22,77,73,69,68,64,61,83,75,57,29.94,29.91,29.86,10,10,10,23,15,30,0.00,2,Rain-Thunderstorm,182
2012-10-23,77,72,68,66,64,63,88,78,65,29.93,29.89,29.84,10,10,7,20,13,29,0.00,4,,175
2012-10-24,82,73,64,63,61,59,88,70,45,29.95,29.88,29.79,10,10,10,26,13,34,0.00,1,,173
2012-10-25,69,56,42,63,50,36,88,78,62,30.25,29.98,29.79,10,10,5,21,14,32,0.00,4,Rain,316
2012-10-26,50,44,37,36,31,30,81,66,47,30.43,30.36,30.25,10,10,10,20,12,28,0.00,3,,11
2012-10-27,51,40,30,32,30,27,93,72,41,30.41,30.33,30.25,10,10,7,10,5,,0.00,0,,28
2012-10-28,53,40,26,32,30,25,100,71,38,30.36,30.30,30.26,10,8,0,7,4,,0.00,0,,46
2012-10-29,60,46,32,34,31,28,93,66,31,30.35,30.27,30.14,10,9,1,9,3,,0.00,0,,122
2012-10-30,71,52,32,41,36,30,93,62,29,30.13,30.02,29.92,10,10,10,12,4,,0.00,0,,149
2012-10-31,66,54,41,41,36,32,81,58,30,30.10,30.03,29.95,10,10,10,13,6,,0.00,0,,39